Terminal Aerodrome Forecast
Issued by NWS Shreveport, LA

Home | Current Version | Previous Version | Text Only | Print | Product List | Glossary On
Versions: 1 2 3 4 5 6 7 8 9 10 11 12 13 14 15 16 17 18
000
FTUS44 KSHV 222300 RRA
TAFLFK
TAF
KLFK 222347Z 2300/2324 VRB04KT P6SM SCT180 OVC250
     FM230800 02004KT 5SM BR SCT007 SCT015 BKN150
      TEMPO 2308/2311 4SM BR BKN007
     FM231100 02005KT 4SM BR OVC007
     FM231600 01007KT P6SM VCSH OVC008
     FM231800 36009KT P6SM VCSH SCT009 OVC012=

USA.gov is the U.S. government's official web portal to all federal, state and local government web resources and services.